Terminal Aerodrome Forecast
Issued by NWS

Home | Current Version | Previous Version | Text Only | Print | Product List | Glossary Off
Versions: 1 2 3 4 5 6 7 8 9 10 11 12 13 14 15 16 17 18 19 20 21 22

000
FTUS43 KMPX 242300
TAFRWF
TAF
KRWF 242339Z 2500/2524 23006KT P6SM SCT006 OVC012
     FM250400 19007KT P6SM SCT012 OVC025
     FM250800 18006KT 6SM BR SCT015 BKN050
     FM251600 VRB03KT 4SM BR OVC009
     FM252100 05005KT P6SM OVC015=

USA.gov is the U.S. government's official web portal to all federal, state and local government web resources and services.